Time;durP1;ratioP1;P1;durP2;ratioP2;P2;SDS_P1;SDS_P2;PMS_P1;PMS_P2;Temp;Humidity;BMP_temperature;BMP_pressure;BME280_temperature;BME280_humidity;BME280_pressure;Samples;Min_cycle;Max_cycle;Signal;HPM_P1;HPM_P2
2024/02/24 00:00:45;;;;;;;5.00;4.10;;;;;;;;;;5074557;28;20440;-69
2024/02/24 00:03:13;;;;;;;5.80;4.60;;;;;;;;;;5074517;28;20444;-69
2024/02/24 00:05:40;;;;;;;5.17;3.30;;;;;;;;;;5074291;28;20569;-70
2024/02/24 00:08:08;;;;;;;4.80;3.60;;;;;;;;;;5074205;28;21034;-70
2024/02/24 00:10:35;;;;;;;9.03;4.67;;;;;;;;;;5074140;28;20452;-70
2024/02/24 00:13:02;;;;;;;4.73;4.23;;;;;;;;;;5074332;28;20443;-70
2024/02/24 00:15:28;;;;;;;4.33;3.93;;;;;;;;;;5074258;28;20898;-69
2024/02/24 00:17:55;;;;;;;4.70;4.30;;;;;;;;;;5074202;28;20490;-70
2024/02/24 00:20:24;;;;;;;6.60;5.00;;;;;;;;;;5074102;28;20538;-70
2024/02/24 00:22:51;;;;;;;8.20;4.67;;;;;;;;;;5073979;28;20493;-70
2024/02/24 00:25:17;;;;;;;7.30;5.60;;;;;;;;;;5073870;28;20575;-70
2024/02/24 00:27:44;;;;;;;5.33;4.83;;;;;;;;;;5074042;28;20810;-70
2024/02/24 00:30:13;;;;;;;7.57;5.17;;;;;;;;;;5073929;28;20531;-71
2024/02/24 00:32:40;;;;;;;5.10;4.60;;;;;;;;;;5073940;28;20439;-70
2024/02/24 00:35:07;;;;;;;5.80;4.67;;;;;;;;;;5073894;28;20923;-70
2024/02/24 00:37:35;;;;;;;3.30;3.00;;;;;;;;;;5073584;28;20467;-70
2024/02/24 00:40:02;;;;;;;4.70;3.73;;;;;;;;;;5073618;28;20895;-70
2024/02/24 00:42:29;;;;;;;2.80;2.60;;;;;;;;;;5073725;28;20440;-70
2024/02/24 00:44:56;;;;;;;3.90;2.50;;;;;;;;;;5073645;28;20909;-70
2024/02/24 00:47:23;;;;;;;2.87;2.63;;;;;;;;;;5073600;28;20527;-70
2024/02/24 00:49:50;;;;;;;8.13;3.50;;;;;;;;;;5073357;28;20527;-70
2024/02/24 00:52:17;;;;;;;3.30;3.00;;;;;;;;;;5073199;28;20447;-70
2024/02/24 00:54:45;;;;;;;7.40;4.23;;;;;;;;;;5073610;28;20872;-70
2024/02/24 00:57:12;;;;;;;6.70;3.77;;;;;;;;;;5073502;28;20526;-69
2024/02/24 00:59:39;;;;;;;7.60;3.57;;;;;;;;;;5073435;28;20803;-69
2024/02/24 01:02:06;;;;;;;4.40;4.00;;;;;;;;;;5073347;28;20448;-69
2024/02/24 01:04:33;;;;;;;4.67;4.27;;;;;;;;;;5073159;28;20517;-69
2024/02/24 01:07:01;;;;;;;5.83;3.60;;;;;;;;;;5073457;28;20471;-69
2024/02/24 01:09:28;;;;;;;5.17;4.00;;;;;;;;;;5073138;28;20989;-69
2024/02/24 01:11:56;;;;;;;3.63;3.27;;;;;;;;;;5073314;28;20447;-69
2024/02/24 01:14:23;;;;;;;3.90;3.57;;;;;;;;;;5073312;28;20878;-69
2024/02/24 01:16:50;;;;;;;3.73;3.43;;;;;;;;;;5073204;28;20539;-69
2024/02/24 01:19:17;;;;;;;4.40;3.43;;;;;;;;;;5073105;28;20927;-69
2024/02/24 01:21:44;;;;;;;3.90;3.30;;;;;;;;;;5073238;28;20534;-69
2024/02/24 01:24:11;;;;;;;5.60;3.30;;;;;;;;;;5073118;28;20451;-69
2024/02/24 01:26:38;;;;;;;3.20;2.90;;;;;;;;;;5073060;28;20454;-69
2024/02/24 01:29:06;;;;;;;3.73;2.97;;;;;;;;;;5073059;28;20454;-69
2024/02/24 01:31:33;;;;;;;4.27;2.80;;;;;;;;;;5072955;28;20501;-69
2024/02/24 01:34:00;;;;;;;2.47;2.27;;;;;;;;;;5072817;28;20497;-69
2024/02/24 01:36:27;;;;;;;2.70;2.50;;;;;;;;;;5073094;28;20500;-70
2024/02/24 01:38:54;;;;;;;2.50;2.30;;;;;;;;;;5072874;28;20819;-70
2024/02/24 01:41:21;;;;;;;5.57;2.60;;;;;;;;;;5073279;28;20443;-69
2024/02/24 01:43:48;;;;;;;2.97;2.67;;;;;;;;;;5072933;28;20447;-69
2024/02/24 01:46:16;;;;;;;2.30;2.10;;;;;;;;;;5072673;28;20485;-70
2024/02/24 01:48:43;;;;;;;2.73;2.50;;;;;;;;;;5073007;28;20534;-69
2024/02/24 01:51:10;;;;;;;5.10;2.20;;;;;;;;;;5072925;28;20535;-69
2024/02/24 01:53:38;;;;;;;3.10;2.37;;;;;;;;;;5072829;28;20455;-70
2024/02/24 01:56:07;;;;;;;2.03;1.93;;;;;;;;;;5072786;28;20533;-69
2024/02/24 01:58:35;;;;;;;3.20;3.00;;;;;;;;;;5072710;28;20450;-69
2024/02/24 02:01:02;;;;;;;2.93;2.50;;;;;;;;;;5072621;28;20457;-69
2024/02/24 02:03:31;;;;;;;3.53;3.23;;;;;;;;;;5074872;28;20447;-69
2024/02/24 02:05:58;;;;;;;2.97;2.60;;;;;;;;;;5076747;28;20505;-69
2024/02/24 02:08:25;;;;;;;2.53;2.33;;;;;;;;;;5076666;28;20193;-69
2024/02/24 02:10:52;;;;;;;3.50;2.30;;;;;;;;;;5076630;28;20450;-70
2024/02/24 02:13:19;;;;;;;6.20;2.50;;;;;;;;;;5076435;28;20934;-69
2024/02/24 02:15:48;;;;;;;2.53;2.33;;;;;;;;;;5076665;28;20841;-69
2024/02/24 02:18:15;;;;;;;2.77;2.50;;;;;;;;;;5076492;28;20446;-69
2024/02/24 02:20:43;;;;;;;3.20;2.53;;;;;;;;;;5076503;28;20542;-69
2024/02/24 02:23:11;;;;;;;3.17;2.35;;;;;;;;;;5076375;28;20535;-69
2024/02/24 02:25:38;;;;;;;2.45;2.15;;;;;;;;;;5076219;28;20213;-69
2024/02/24 02:28:06;;;;;;;5.10;2.10;;;;;;;;;;5076193;28;20231;-69
2024/02/24 02:30:33;;;;;;;3.53;2.50;;;;;;;;;;5076427;28;20695;-70
2024/02/24 02:33:00;;;;;;;2.47;2.03;;;;;;;;;;5076231;28;20193;-70
2024/02/24 02:35:27;;;;;;;2.17;1.92;;;;;;;;;;5076203;28;20276;-70
2024/02/24 02:37:54;;;;;;;2.17;1.98;;;;;;;;;;5076071;28;20276;-70
2024/02/24 02:40:22;;;;;;;2.70;2.50;;;;;;;;;;5075828;28;20308;-70
2024/02/24 02:42:49;;;;;;;3.60;2.42;;;;;;;;;;5075889;28;20194;-69
2024/02/24 02:45:16;;;;;;;2.70;2.50;;;;;;;;;;5075980;28;20248;-70
2024/02/24 02:47:43;;;;;;;3.13;2.27;;;;;;;;;;5075982;28;20185;-70
2024/02/24 02:50:10;;;;;;;2.83;1.97;;;;;;;;;;5075880;28;20454;-70
2024/02/24 02:52:37;;;;;;;4.88;2.70;;;;;;;;;;5075771;28;20483;-70
2024/02/24 02:55:04;;;;;;;3.20;2.55;;;;;;;;;;5075739;28;20190;-70
2024/02/24 02:57:32;;;;;;;3.08;2.53;;;;;;;;;;5075852;28;20189;-70
2024/02/24 02:59:59;;;;;;;3.83;2.28;;;;;;;;;;5075760;28;20280;-70
2024/02/24 03:02:26;;;;;;;2.53;2.33;;;;;;;;;;5075707;28;20617;-69
2024/02/24 03:04:53;;;;;;;4.87;2.13;;;;;;;;;;5075555;28;20526;-70
2024/02/24 03:07:20;;;;;;;4.23;2.23;;;;;;;;;;5075538;28;20809;-70
2024/02/24 03:09:47;;;;;;;6.73;2.30;;;;;;;;;;5075425;28;20952;-70
2024/02/24 03:12:15;;;;;;;5.33;2.33;;;;;;;;;;5075355;28;20526;-70
2024/02/24 03:14:43;;;;;;;3.67;2.10;;;;;;;;;;5074997;28;20450;-70
2024/02/24 03:17:10;;;;;;;3.27;2.03;;;;;;;;;;5075455;28;21002;-70
2024/02/24 03:19:39;;;;;;;1.90;1.80;;;;;;;;;;5075331;28;20443;-70
2024/02/24 03:22:06;;;;;;;2.40;2.20;;;;;;;;;;5075109;28;20471;-70
2024/02/24 03:24:33;;;;;;;3.40;1.85;;;;;;;;;;5075402;28;20447;-70
2024/02/24 03:27:00;;;;;;;2.30;2.10;;;;;;;;;;5074959;28;20308;-70
2024/02/24 03:29:27;;;;;;;2.53;2.33;;;;;;;;;;5075159;28;20280;-70
2024/02/24 03:31:55;;;;;;;2.40;1.95;;;;;;;;;;5075120;28;20193;-70
2024/02/24 03:34:22;;;;;;;3.58;2.00;;;;;;;;;;5075073;28;20193;-70
2024/02/24 03:36:49;;;;;;;6.50;4.00;;;;;;;;;;5074863;28;20219;-70
2024/02/24 03:39:18;;;;;;;5.03;2.08;;;;;;;;;;5074858;28;20584;-70
2024/02/24 03:41:45;;;;;;;2.17;1.98;;;;;;;;;;5074979;28;20212;-70
2024/02/24 03:44:12;;;;;;;2.42;1.63;;;;;;;;;;5074886;28;20284;-71
2024/02/24 03:46:39;;;;;;;4.10;2.03;;;;;;;;;;5074732;28;20307;-70
2024/02/24 03:49:08;;;;;;;2.07;1.87;;;;;;;;;;5074614;28;20280;-70
2024/02/24 03:51:35;;;;;;;2.55;2.35;;;;;;;;;;5074875;28;20444;-70
2024/02/24 03:54:02;;;;;;;3.80;2.28;;;;;;;;;;5074618;28;20645;-69
2024/02/24 03:56:29;;;;;;;3.55;2.50;;;;;;;;;;5074688;28;20200;-70
2024/02/24 03:58:56;;;;;;;5.30;2.40;;;;;;;;;;5074595;28;20613;-70
2024/02/24 04:01:23;;;;;;;3.05;2.35;;;;;;;;;;5074505;28;20268;-70
2024/02/24 04:03:51;;;;;;;4.22;1.83;;;;;;;;;;5074359;28;20193;-70
2024/02/24 04:06:19;;;;;;;2.50;2.28;;;;;;;;;;5074479;28;20220;-70
2024/02/24 04:08:46;;;;;;;3.33;2.60;;;;;;;;;;5074486;28;20193;-70
2024/02/24 04:11:13;;;;;;;3.10;2.90;;;;;;;;;;5074369;28;20284;-70
2024/02/24 04:13:40;;;;;;;4.38;2.17;;;;;;;;;;5074302;28;20454;-70
2024/02/24 04:16:07;;;;;;;2.60;2.40;;;;;;;;;;5074229;28;20193;-70
2024/02/24 04:18:34;;;;;;;5.10;2.40;;;;;;;;;;5074149;28;20228;-70
2024/02/24 04:21:01;;;;;;;5.55;2.50;;;;;;;;;;5074227;28;20281;-70
2024/02/24 04:23:29;;;;;;;3.03;2.20;;;;;;;;;;5074172;28;20289;-70
2024/02/24 04:25:56;;;;;;;3.00;2.13;;;;;;;;;;5073104;28;20258;-70
2024/02/24 04:28:23;;;;;;;3.80;2.35;;;;;;;;;;5074001;28;20193;-70
2024/02/24 04:30:50;;;;;;;2.63;2.42;;;;;;;;;;5073808;28;20201;-70
2024/02/24 04:33:17;;;;;;;2.38;2.17;;;;;;;;;;5074042;28;20190;-69
2024/02/24 04:35:44;;;;;;;2.35;2.15;;;;;;;;;;5073947;28;20204;-69
2024/02/24 04:38:12;;;;;;;2.45;1.95;;;;;;;;;;5073942;28;20276;-70
2024/02/24 04:40:40;;;;;;;5.30;2.22;;;;;;;;;;5073624;28;20216;-70
2024/02/24 04:43:07;;;;;;;6.55;2.65;;;;;;;;;;5073671;28;20189;-70
2024/02/24 04:45:35;;;;;;;3.45;2.75;;;;;;;;;;5073464;28;20304;-70
2024/02/24 04:48:02;;;;;;;3.05;2.17;;;;;;;;;;5073480;28;20243;-70
2024/02/24 04:50:29;;;;;;;3.95;2.55;;;;;;;;;;5073607;28;20185;-70
2024/02/24 04:52:56;;;;;;;4.97;2.95;;;;;;;;;;5073544;28;20239;-70
2024/02/24 04:55:23;;;;;;;7.07;2.95;;;;;;;;;;5073493;28;20276;-70
2024/02/24 04:57:51;;;;;;;3.95;3.30;;;;;;;;;;5073399;28;20258;-70
2024/02/24 05:00:18;;;;;;;5.53;4.68;;;;;;;;;;5073193;28;20280;-70
2024/02/24 05:02:45;;;;;;;5.45;3.10;;;;;;;;;;5073522;28;20271;-70
2024/02/24 05:05:12;;;;;;;4.35;3.00;;;;;;;;;;5073399;28;20189;-70
2024/02/24 05:07:39;;;;;;;6.18;3.83;;;;;;;;;;5073238;28;20219;-70
2024/02/24 05:10:06;;;;;;;4.97;3.85;;;;;;;;;;5073203;28;20668;-70
2024/02/24 05:12:33;;;;;;;4.28;3.78;;;;;;;;;;5073087;28;20441;-70
2024/02/24 05:15:02;;;;;;;4.97;3.50;;;;;;;;;;5073379;28;20280;-70
2024/02/24 05:17:29;;;;;;;5.72;3.90;;;;;;;;;;5073274;28;20280;-70
2024/02/24 05:19:56;;;;;;;3.85;2.90;;;;;;;;;;5073158;28;20193;-70
2024/02/24 05:22:23;;;;;;;4.55;3.65;;;;;;;;;;5073139;28;20185;-70
2024/02/24 05:24:50;;;;;;;4.63;3.22;;;;;;;;;;5073042;28;20280;-70
2024/02/24 05:27:19;;;;;;;3.97;3.35;;;;;;;;;;5072868;28;20220;-70
2024/02/24 05:29:46;;;;;;;9.48;3.78;;;;;;;;;;5073114;28;20600;-69
2024/02/24 05:32:16;;;;;;;3.72;3.15;;;;;;;;;;5073165;28;20193;-70
2024/02/24 05:34:43;;;;;;;2.65;2.40;;;;;;;;;;5073025;28;20549;-70
2024/02/24 05:37:10;;;;;;;3.45;2.85;;;;;;;;;;5072734;28;20189;-70
2024/02/24 05:39:38;;;;;;;3.30;3.00;;;;;;;;;;5072715;28;20212;-70
2024/02/24 05:42:05;;;;;;;3.60;2.63;;;;;;;;;;5072844;28;20193;-70
2024/02/24 05:44:32;;;;;;;2.58;2.38;;;;;;;;;;5072991;28;20221;-70
2024/02/24 05:46:59;;;;;;;5.40;3.08;;;;;;;;;;5072810;28;20227;-70
2024/02/24 05:49:27;;;;;;;2.78;2.30;;;;;;;;;;5072831;28;20272;-70
2024/02/24 05:51:54;;;;;;;3.15;2.38;;;;;;;;;;5072834;28;20280;-69
2024/02/24 05:54:21;;;;;;;2.30;2.20;;;;;;;;;;5072635;28;20671;-70
2024/02/24 05:56:48;;;;;;;4.53;2.40;;;;;;;;;;5072869;28;20185;-70
2024/02/24 05:59:15;;;;;;;2.72;2.47;;;;;;;;;;5072852;28;20277;-70
2024/02/24 06:01:42;;;;;;;2.70;2.50;;;;;;;;;;5072817;28;20591;-70
2024/02/24 06:04:09;;;;;;;2.70;2.50;;;;;;;;;;5072745;28;20718;-70
2024/02/24 06:06:37;;;;;;;3.10;2.33;;;;;;;;;;5072511;28;20219;-70
2024/02/24 06:09:04;;;;;;;4.85;2.70;;;;;;;;;;5072624;28;20594;-70
2024/02/24 06:11:31;;;;;;;3.72;3.38;;;;;;;;;;5072665;28;20185;-69
2024/02/24 06:13:58;;;;;;;5.28;2.70;;;;;;;;;;5072670;28;20280;-70
2024/02/24 06:16:25;;;;;;;2.72;2.53;;;;;;;;;;5072585;28;20593;-69
2024/02/24 06:18:52;;;;;;;5.80;2.70;;;;;;;;;;5072594;28;20193;-70
2024/02/24 06:21:19;;;;;;;5.40;2.70;;;;;;;;;;5072478;28;20656;-70
2024/02/24 06:23:48;;;;;;;6.13;3.13;;;;;;;;;;5072693;28;20307;-70
2024/02/24 06:26:15;;;;;;;3.40;3.03;;;;;;;;;;5072531;28;20213;-70
2024/02/24 06:28:42;;;;;;;3.05;2.78;;;;;;;;;;5072520;28;20276;-70
2024/02/24 06:31:09;;;;;;;3.55;2.75;;;;;;;;;;5072493;28;20224;-70
2024/02/24 06:33:36;;;;;;;4.75;2.42;;;;;;;;;;5072406;28;20200;-70
2024/02/24 06:36:04;;;;;;;4.25;2.92;;;;;;;;;;5072333;28;20229;-70
2024/02/24 06:38:31;;;;;;;7.72;3.40;;;;;;;;;;5072113;28;20668;-69
2024/02/24 06:41:00;;;;;;;4.28;3.08;;;;;;;;;;5072500;28;20185;-69
2024/02/24 06:43:26;;;;;;;3.35;2.60;;;;;;;;;;5072441;28;20189;-70
2024/02/24 06:45:53;;;;;;;4.60;4.20;;;;;;;;;;5072212;28;20225;-70
2024/02/24 06:48:20;;;;;;;5.78;5.28;;;;;;;;;;5072522;28;20624;-69
2024/02/24 06:50:47;;;;;;;9.00;8.10;;;;;;;;;;5076027;28;20192;-70
2024/02/24 06:53:14;;;;;;;8.40;6.50;;;;;;;;;;5075922;28;20220;-70
2024/02/24 06:55:42;;;;;;;3.72;3.45;;;;;;;;;;5075849;28;20280;-69
2024/02/24 06:58:10;;;;;;;4.32;3.28;;;;;;;;;;5075788;28;20280;-70
2024/02/24 07:00:37;;;;;;;3.70;3.40;;;;;;;;;;5075663;28;20189;-70
2024/02/24 07:03:04;;;;;;;7.05;3.33;;;;;;;;;;5075545;28;20552;-70
2024/02/24 07:05:31;;;;;;;4.90;4.18;;;;;;;;;;5075733;28;20272;-69
2024/02/24 07:07:58;;;;;;;4.28;3.75;;;;;;;;;;5075572;28;20328;-70
2024/02/24 07:10:25;;;;;;;5.07;4.00;;;;;;;;;;5075546;28;20640;-70
2024/02/24 07:12:52;;;;;;;5.22;4.72;;;;;;;;;;5075357;28;20679;-70
2024/02/24 07:15:20;;;;;;;5.72;5.05;;;;;;;;;;5075287;28;20189;-70
2024/02/24 07:17:47;;;;;;;3.75;3.45;;;;;;;;;;5075277;28;20197;-70
2024/02/24 07:20:14;;;;;;;7.88;4.30;;;;;;;;;;5075443;28;20272;-70
2024/02/24 07:22:42;;;;;;;5.20;3.90;;;;;;;;;;5075483;28;20296;-70
2024/02/24 07:25:09;;;;;;;4.28;3.90;;;;;;;;;;5075356;28;20191;-70
2024/02/24 07:27:36;;;;;;;3.27;3.07;;;;;;;;;;5075115;28;20244;-70
2024/02/24 07:30:04;;;;;;;7.70;3.80;;;;;;;;;;5075038;28;20475;-69
2024/02/24 07:32:33;;;;;;;3.80;3.50;;;;;;;;;;5075271;28;20628;-70
2024/02/24 07:35:00;;;;;;;4.80;4.00;;;;;;;;;;5075149;28;20446;-70
2024/02/24 07:37:27;;;;;;;6.53;4.25;;;;;;;;;;5075045;28;20448;-70
2024/02/24 07:39:54;;;;;;;6.67;3.90;;;;;;;;;;5074689;28;20718;-70
2024/02/24 07:42:24;;;;;;;7.27;4.90;;;;;;;;;;5074847;28;20454;-70
2024/02/24 07:44:51;;;;;;;10.80;5.65;;;;;;;;;;5075010;28;20538;-70
2024/02/24 07:47:18;;;;;;;8.88;6.35;;;;;;;;;;5074815;28;20304;-70
2024/02/24 07:49:46;;;;;;;6.70;4.80;;;;;;;;;;5074821;28;20193;-70
2024/02/24 07:52:13;;;;;;;6.75;5.10;;;;;;;;;;5074700;28;21021;-70
2024/02/24 07:54:40;;;;;;;7.40;4.87;;;;;;;;;;5074652;28;20189;-70
2024/02/24 07:57:07;;;;;;;11.07;4.60;;;;;;;;;;5074436;28;20486;-70
2024/02/24 07:59:34;;;;;;;4.33;3.43;;;;;;;;;;5074686;28;20539;-70
2024/02/24 08:02:01;;;;;;;4.07;2.80;;;;;;;;;;5074564;28;20450;-70
2024/02/24 08:04:28;;;;;;;5.37;3.87;;;;;;;;;;5074532;28;20454;-70
2024/02/24 08:06:57;;;;;;;4.07;3.77;;;;;;;;;;5074349;28;20830;-70
2024/02/24 08:09:24;;;;;;;5.33;3.43;;;;;;;;;;5074311;28;20476;-70
2024/02/24 08:11:52;;;;;;;3.97;3.63;;;;;;;;;;5074313;28;20455;-70
2024/02/24 08:14:19;;;;;;;4.23;3.80;;;;;;;;;;5074448;28;20486;-70
2024/02/24 08:16:46;;;;;;;6.50;4.30;;;;;;;;;;5074302;28;20898;-70
2024/02/24 08:19:13;;;;;;;6.30;3.93;;;;;;;;;;5074215;28;20444;-70
2024/02/24 08:21:40;;;;;;;4.40;4.00;;;;;;;;;;5074038;28;20887;-70
2024/02/24 08:24:09;;;;;;;5.23;4.03;;;;;;;;;;5073925;28;21015;-70
2024/02/24 08:26:38;;;;;;;4.40;3.47;;;;;;;;;;5073753;28;20447;-70
2024/02/24 08:29:05;;;;;;;3.83;3.50;;;;;;;;;;5073872;28;21114;-70
2024/02/24 08:31:34;;;;;;;3.80;3.50;;;;;;;;;;5073995;28;20803;-70
2024/02/24 08:34:01;;;;;;;5.80;3.77;;;;;;;;;;5073846;28;20949;-70
2024/02/24 08:36:28;;;;;;;8.93;4.30;;;;;;;;;;5073788;28;20447;-71
2024/02/24 08:38:56;;;;;;;3.40;3.03;;;;;;;;;;5073506;28;20467;-69
2024/02/24 08:41:25;;;;;;;4.93;3.40;;;;;;;;;;5073657;28;20947;-70
2024/02/24 08:43:52;;;;;;;3.40;3.10;;;;;;;;;;5073756;28;20546;-70
2024/02/24 08:46:19;;;;;;;5.73;3.80;;;;;;;;;;5073605;28;21003;-70
2024/02/24 08:48:46;;;;;;;3.87;3.23;;;;;;;;;;5073463;28;20491;-70
2024/02/24 08:51:13;;;;;;;3.57;3.37;;;;;;;;;;5073476;28;20443;-70
2024/02/24 08:53:41;;;;;;;5.50;3.40;;;;;;;;;;5073338;28;20534;-70
2024/02/24 08:56:08;;;;;;;3.23;2.93;;;;;;;;;;5073474;28;20450;-70
2024/02/24 08:58:37;;;;;;;3.47;2.93;;;;;;;;;;5073406;28;20542;-70
2024/02/24 09:01:04;;;;;;;5.00;2.90;;;;;;;;;;5073391;28;20479;-70
2024/02/24 09:03:31;;;;;;;3.63;3.23;;;;;;;;;;5073289;28;20447;-70
2024/02/24 09:05:58;;;;;;;4.37;2.70;;;;;;;;;;5073183;28;20444;-70
2024/02/24 09:08:25;;;;;;;2.67;2.33;;;;;;;;;;5073357;28;20849;-70
2024/02/24 09:10:52;;;;;;;3.60;2.30;;;;;;;;;;5073141;28;20860;-69
2024/02/24 09:13:19;;;;;;;6.67;3.40;;;;;;;;;;5073005;28;20500;-69
2024/02/24 09:15:47;;;;;;;2.90;2.70;;;;;;;;;;5072735;28;20538;-69
2024/02/24 09:18:14;;;;;;;5.00;2.20;;;;;;;;;;5072860;28;20450;-70
2024/02/24 09:20:41;;;;;;;5.33;2.30;;;;;;;;;;5072862;28;20526;-70
2024/02/24 09:23:08;;;;;;;3.10;2.00;;;;;;;;;;5072944;28;20534;-70
2024/02/24 09:25:35;;;;;;;2.70;2.23;;;;;;;;;;5073011;28;20440;-70
2024/02/24 09:28:02;;;;;;;7.30;2.33;;;;;;;;;;5072611;28;20479;-70
2024/02/24 09:30:29;;;;;;;3.37;1.93;;;;;;;;;;5072857;28;20539;-70
2024/02/24 09:32:58;;;;;;;2.40;2.20;;;;;;;;;;5072840;28;20565;-70
2024/02/24 09:35:25;;;;;;;4.00;1.73;;;;;;;;;;5073024;28;20527;-70
2024/02/24 09:37:53;;;;;;;2.33;2.13;;;;;;;;;;5072973;28;20814;-70
2024/02/24 09:40:20;;;;;;;2.50;2.30;;;;;;;;;;5072730;28;20554;-70
2024/02/24 09:42:47;;;;;;;4.37;2.50;;;;;;;;;;5072779;28;20529;-70
2024/02/24 09:45:15;;;;;;;5.50;2.87;;;;;;;;;;5072761;28;20448;-70
2024/02/24 09:47:42;;;;;;;3.53;2.37;;;;;;;;;;5072735;28;20561;-70
2024/02/24 09:50:11;;;;;;;4.90;2.00;;;;;;;;;;5072965;28;20934;-70
2024/02/24 09:52:41;;;;;;;4.67;2.23;;;;;;;;;;5072842;28;20455;-70
2024/02/24 09:55:10;;;;;;;3.73;1.90;;;;;;;;;;5072866;28;20449;-71
2024/02/24 09:57:38;;;;;;;2.83;1.77;;;;;;;;;;5072654;28;20443;-70
2024/02/24 10:00:06;;;;;;;4.00;1.87;;;;;;;;;;5072450;28;20538;-70
2024/02/24 10:02:34;;;;;;;6.33;2.00;;;;;;;;;;5072757;28;20439;-70
2024/02/24 10:05:01;;;;;;;2.00;1.60;;;;;;;;;;5072649;28;20443;-70
2024/02/24 10:07:30;;;;;;;2.30;1.77;;;;;;;;;;5072604;28;20505;-70
2024/02/24 10:09:57;;;;;;;4.40;1.83;;;;;;;;;;5072594;28;20474;-70
2024/02/24 10:12:24;;;;;;;2.13;1.60;;;;;;;;;;5072490;28;20851;-70
2024/02/24 10:14:51;;;;;;;2.10;1.90;;;;;;;;;;5072481;28;20466;-70
2024/02/24 10:17:18;;;;;;;2.30;1.93;;;;;;;;;;5072344;28;20939;-70
2024/02/24 10:19:47;;;;;;;1.40;1.30;;;;;;;;;;5072400;28;20478;-70
2024/02/24 10:22:17;;;;;;;1.60;1.50;;;;;;;;;;5072530;28;20482;-70
2024/02/24 10:24:45;;;;;;;1.50;1.40;;;;;;;;;;5074921;28;20443;-70
2024/02/24 10:27:12;;;;;;;3.83;1.57;;;;;;;;;;5076095;28;20534;-70
2024/02/24 10:29:40;;;;;;;1.97;1.57;;;;;;;;;;5076447;28;20443;-70
2024/02/24 10:32:08;;;;;;;1.50;1.40;;;;;;;;;;5076279;28;20489;-70
2024/02/24 10:34:35;;;;;;;2.30;1.50;;;;;;;;;;5076056;28;20480;-70
2024/02/24 10:37:03;;;;;;;3.43;1.70;;;;;;;;;;5076093;28;20444;-70
2024/02/24 10:39:34;;;;;;;1.30;1.20;;;;;;;;;;5075699;28;20517;-70
2024/02/24 10:42:06;;;;;;;4.00;2.00;;;;;;;;;;5076071;28;20439;-70
2024/02/24 10:44:34;;;;;;;4.67;1.60;;;;;;;;;;5076014;28;20443;-70
2024/02/24 10:47:01;;;;;;;3.03;1.80;;;;;;;;;;5075875;28;20520;-70
2024/02/24 10:49:29;;;;;;;4.27;2.00;;;;;;;;;;5075791;28;20439;-70
2024/02/24 10:51:56;;;;;;;4.47;1.50;;;;;;;;;;5075741;28;20438;-71
2024/02/24 10:54:24;;;;;;;2.40;1.73;;;;;;;;;;5075654;28;20471;-71
2024/02/24 10:56:54;;;;;;;3.80;1.13;;;;;;;;;;5075759;28;20533;-70
2024/02/24 10:59:28;;;;;;;3.90;1.47;;;;;;;;;;5076043;28;20445;-71
2024/02/24 11:01:59;;;;;;;2.30;1.40;;;;;;;;;;5075585;28;20455;-71
2024/02/24 11:04:26;;;;;;;1.80;1.20;;;;;;;;;;5075519;28;21004;-71
2024/02/24 11:06:54;;;;;;;1.67;1.00;;;;;;;;;;5075341;28;20439;-71
2024/02/24 11:09:22;;;;;;;3.73;1.10;;;;;;;;;;5075458;28;20479;-70
2024/02/24 11:11:49;;;;;;;1.27;1.17;;;;;;;;;;5075471;28;20569;-71
2024/02/24 11:14:17;;;;;;;2.13;1.27;;;;;;;;;;5075410;28;20874;-71
2024/02/24 11:16:46;;;;;;;1.40;1.30;;;;;;;;;;5075340;28;20443;-70
2024/02/24 11:19:13;;;;;;;2.53;1.03;;;;;;;;;;5075125;28;20447;-70
2024/02/24 11:21:58;;;;;;;1.90;1.20;;;;;;;;;;5075281;28;20530;-71
2024/02/24 11:24:31;;;;;;;1.50;1.30;;;;;;;;;;5075575;28;20435;-70
2024/02/24 11:26:58;;;;;;;1.47;1.00;;;;;;;;;;5075222;28;20448;-70
2024/02/24 11:29:26;;;;;;;1.20;0.90;;;;;;;;;;5075019;28;20950;-71
2024/02/24 11:32:04;;;;;;;2.10;1.40;;;;;;;;;;5074825;28;20927;-70
2024/02/24 11:34:33;;;;;;;4.20;1.50;;;;;;;;;;5074739;28;20534;-70
2024/02/24 11:37:00;;;;;;;2.33;1.10;;;;;;;;;;5074797;28;20448;-70
2024/02/24 11:39:27;;;;;;;3.30;1.40;;;;;;;;;;5074777;28;20507;-71
2024/02/24 11:41:56;;;;;;;3.97;1.23;;;;;;;;;;5074874;28;20539;-70
2024/02/24 11:44:23;;;;;;;4.27;1.23;;;;;;;;;;5074957;28;20483;-70
2024/02/24 11:46:50;;;;;;;1.53;1.13;;;;;;;;;;5074802;28;20439;-70
2024/02/24 11:49:18;;;;;;;1.27;1.17;;;;;;;;;;5074619;28;20482;-70
2024/02/24 11:51:45;;;;;;;1.30;1.20;;;;;;;;;;5074559;28;20875;-71
2024/02/24 11:54:12;;;;;;;1.60;1.07;;;;;;;;;;5074613;28;20947;-70
2024/02/24 11:56:39;;;;;;;2.77;2.03;;;;;;;;;;5074347;28;20543;-70
2024/02/24 11:59:09;;;;;;;1.30;1.00;;;;;;;;;;5074371;28;20538;-70
2024/02/24 12:01:37;;;;;;;3.17;1.67;;;;;;;;;;5074415;28;20443;-70
2024/02/24 12:04:04;;;;;;;5.03;1.47;;;;;;;;;;5074344;28;20449;-71
2024/02/24 12:06:32;;;;;;;1.13;1.00;;;;;;;;;;5074372;28;20538;-71
2024/02/24 12:09:00;;;;;;;2.50;1.53;;;;;;;;;;5074190;28;20974;-71
2024/02/24 12:11:27;;;;;;;2.90;1.40;;;;;;;;;;5074131;28;20459;-70
2024/02/24 12:13:54;;;;;;;1.77;1.40;;;;;;;;;;5074296;28;20491;-70
2024/02/24 12:16:24;;;;;;;3.10;1.50;;;;;;;;;;5074044;28;20500;-71
2024/02/24 12:18:50;;;;;;;1.57;1.17;;;;;;;;;;5073902;28;20935;-71
2024/02/24 12:21:18;;;;;;;1.40;1.20;;;;;;;;;;5074060;28;20439;-70
2024/02/24 12:23:46;;;;;;;3.67;1.30;;;;;;;;;;5073880;28;20450;-70
2024/02/24 12:26:14;;;;;;;3.77;1.17;;;;;;;;;;5074181;28;20872;-70
2024/02/24 12:28:41;;;;;;;2.60;1.03;;;;;;;;;;5073932;28;20574;-70
2024/02/24 12:31:10;;;;;;;1.73;1.43;;;;;;;;;;5073918;28;20447;-70
2024/02/24 12:33:37;;;;;;;1.83;1.00;;;;;;;;;;5073745;28;20452;-71
2024/02/24 12:36:05;;;;;;;2.67;1.20;;;;;;;;;;5074150;28;20542;-71
2024/02/24 12:38:32;;;;;;;1.07;0.83;;;;;;;;;;5073434;28;20455;-70
2024/02/24 12:41:00;;;;;;;1.80;1.10;;;;;;;;;;5073601;28;20515;-71
2024/02/24 12:43:27;;;;;;;1.63;1.10;;;;;;;;;;5073735;28;20538;-71
2024/02/24 12:45:54;;;;;;;1.97;1.10;;;;;;;;;;5073150;28;20531;-71
2024/02/24 12:48:22;;;;;;;1.47;1.00;;;;;;;;;;5073060;28;20998;-71
2024/02/24 12:50:50;;;;;;;2.50;1.40;;;;;;;;;;5073399;28;21029;-71
2024/02/24 12:53:17;;;;;;;2.10;1.07;;;;;;;;;;5073386;28;20447;-70
2024/02/24 12:55:44;;;;;;;3.00;0.80;;;;;;;;;;5073297;28;20440;-70
2024/02/24 12:58:12;;;;;;;1.43;0.83;;;;;;;;;;5073355;28;20448;-70
2024/02/24 13:00:39;;;;;;;1.63;1.03;;;;;;;;;;5073259;28;20531;-71
2024/02/24 13:03:06;;;;;;;1.13;1.03;;;;;;;;;;5073239;28;20955;-71
2024/02/24 13:05:33;;;;;;;5.47;1.23;;;;;;;;;;5073004;28;20538;-71
2024/02/24 13:08:00;;;;;;;1.63;1.20;;;;;;;;;;5073235;28;20439;-70
2024/02/24 13:10:27;;;;;;;1.50;1.30;;;;;;;;;;5073290;28;20538;-70
2024/02/24 13:12:54;;;;;;;1.80;1.03;;;;;;;;;;5073026;28;20443;-71
2024/02/24 13:15:23;;;;;;;2.60;0.90;;;;;;;;;;5073049;28;20527;-71
2024/02/24 13:17:50;;;;;;;1.97;1.00;;;;;;;;;;5072919;28;20469;-71
2024/02/24 13:20:17;;;;;;;1.20;0.90;;;;;;;;;;5072831;28;21012;-70
2024/02/24 13:22:44;;;;;;;3.57;1.10;;;;;;;;;;5073142;28;20534;-70
2024/02/24 13:25:11;;;;;;;1.77;0.90;;;;;;;;;;5073059;28;20530;-70
2024/02/24 13:27:38;;;;;;;1.03;0.93;;;;;;;;;;5073028;28;20443;-71
2024/02/24 13:30:05;;;;;;;2.70;1.20;;;;;;;;;;5072859;28;20494;-71
2024/02/24 13:32:34;;;;;;;1.30;1.13;;;;;;;;;;5072818;28;20449;-71
2024/02/24 13:35:01;;;;;;;2.53;1.00;;;;;;;;;;5073031;28;20894;-70
2024/02/24 13:37:28;;;;;;;1.20;0.90;;;;;;;;;;5072929;28;20489;-71
2024/02/24 13:39:55;;;;;;;1.30;0.90;;;;;;;;;;5072732;28;20917;-71
2024/02/24 13:42:22;;;;;;;1.20;1.00;;;;;;;;;;5072672;28;20538;-71
2024/02/24 13:44:49;;;;;;;1.53;0.90;;;;;;;;;;5072785;28;20443;-73
2024/02/24 13:47:16;;;;;;;1.53;0.90;;;;;;;;;;5072669;28;20799;-70
2024/02/24 13:49:44;;;;;;;1.60;1.00;;;;;;;;;;5072938;28;20486;-70
2024/02/24 13:52:11;;;;;;;1.40;1.30;;;;;;;;;;5072779;28;20482;-70
2024/02/24 13:54:38;;;;;;;1.60;1.00;;;;;;;;;;5072757;28;20534;-70
2024/02/24 13:57:05;;;;;;;1.63;1.30;;;;;;;;;;5072585;28;20887;-71
2024/02/24 13:59:32;;;;;;;1.50;1.07;;;;;;;;;;5076625;28;20534;-70
2024/02/24 14:01:59;;;;;;;1.97;1.20;;;;;;;;;;5076859;28;20538;-70
2024/02/24 14:04:27;;;;;;;1.90;1.00;;;;;;;;;;5076797;28;20447;-70
2024/02/24 14:06:55;;;;;;;4.10;1.23;;;;;;;;;;5076730;28;20466;-70
2024/02/24 14:09:22;;;;;;;1.73;1.47;;;;;;;;;;5076514;28;20917;-70
2024/02/24 14:11:49;;;;;;;1.87;1.13;;;;;;;;;;5076524;28;20884;-70
2024/02/24 14:14:16;;;;;;;1.33;1.10;;;;;;;;;;5076298;28;20534;-70
2024/02/24 14:16:44;;;;;;;1.40;1.27;;;;;;;;;;5076381;28;20443;-71
2024/02/24 14:19:11;;;;;;;0.87;0.87;;;;;;;;;;5076457;28;20444;-72
2024/02/24 14:21:38;;;;;;;3.43;1.17;;;;;;;;;;5076334;28;20538;-70
2024/02/24 14:24:07;;;;;;;3.00;1.37;;;;;;;;;;5076202;28;20541;-71
2024/02/24 14:26:34;;;;;;;1.30;1.20;;;;;;;;;;5076123;28;20450;-70
2024/02/24 14:29:01;;;;;;;1.30;1.13;;;;;;;;;;5075908;28;20477;-70
2024/02/24 14:31:28;;;;;;;1.57;1.20;;;;;;;;;;5076406;28;20451;-71
2024/02/24 14:33:55;;;;;;;2.03;1.30;;;;;;;;;;5076202;28;20451;-71
2024/02/24 14:36:22;;;;;;;2.23;1.20;;;;;;;;;;5076089;28;20559;-71
2024/02/24 14:38:49;;;;;;;1.40;1.07;;;;;;;;;;5075876;28;20482;-70
2024/02/24 14:41:17;;;;;;;1.87;1.20;;;;;;;;;;5075872;28;20530;-71
2024/02/24 14:43:44;;;;;;;1.83;1.10;;;;;;;;;;5076051;28;20452;-70